Time;durP1;ratioP1;P1;durP2;ratioP2;P2;SDS_P1;SDS_P2;PMS_P1;PMS_P2;Temp;Humidity;BMP_temperature;BMP_pressure;BME280_temperature;BME280_humidity;BME280_pressure;Samples;Min_cycle;Max_cycle;Signal;HPM_P1;HPM_P2
2021/09/22 00:00:35;;;;;;;72.80;68.20;;;8.80;99.90;;;;;;6186294;23;20405;-87
2021/09/22 00:03:18;;;;;;;61.17;57.07;;;8.80;99.90;;;;;;6196075;23;20445;-87
2021/09/22 00:05:53;;;;;;;70.10;65.27;;;8.80;99.90;;;;;;6195822;23;20873;-86
2021/09/22 00:08:25;;;;;;;78.50;74.20;;;8.70;99.90;;;;;;6196280;23;20404;-87
2021/09/22 00:10:56;;;;;;;95.03;89.13;;;8.70;99.90;;;;;;6196035;23;20468;-86
2021/09/22 00:13:24;;;;;;;103.33;97.57;;;8.80;99.90;;;;;;6194604;23;20401;-86
2021/09/22 00:15:51;;;;;;;113.03;107.03;;;8.70;99.90;;;;;;6186162;23;20437;-86
2021/09/22 00:18:18;;;;;;;119.10;112.87;;;8.80;99.90;;;;;;6195676;23;20437;-86
2021/09/22 00:20:49;;;;;;;117.53;110.90;;;8.70;99.90;;;;;;6186157;23;20456;-86
2021/09/22 00:23:20;;;;;;;119.00;112.40;;;8.70;99.90;;;;;;6195525;23;20429;-84
2021/09/22 00:25:47;;;;;;;117.73;111.10;;;8.70;99.90;;;;;;6186053;23;20398;-87
2021/09/22 00:28:31;;;;;;;109.47;103.37;;;8.60;99.90;;;;;;6194731;23;20415;-87
2021/09/22 00:31:03;;;;;;;106.07;100.77;;;8.50;99.90;;;;;;6195640;23;20881;-86
2021/09/22 00:33:37;;;;;;;112.13;105.30;;;8.50;99.90;;;;;;6195298;23;20760;-87
2021/09/22 00:36:13;;;;;;;113.67;107.87;;;8.50;99.90;;;;;;6195429;23;20746;-85
2021/09/22 00:38:50;;;;;;;;;;;;;;;;;;;;;
2021/09/22 00:41:23;;;;;;;118.77;112.47;;;8.50;99.90;;;;;;6185456;23;20404;-86
2021/09/22 00:43:53;;;;;;;120.87;112.97;;;8.50;99.90;;;;;;6194393;23;20919;-86
2021/09/22 00:46:28;;;;;;;115.97;109.47;;;8.50;99.90;;;;;;6195327;23;20987;-86
2021/09/22 00:48:59;;;;;;;124.97;118.17;;;8.30;99.90;;;;;;6195539;23;20404;-86
2021/09/22 00:51:26;;;;;;;140.10;131.90;;;8.20;99.90;;;;;;6195757;23;20409;-83
2021/09/22 00:53:55;;;;;;;168.73;159.27;;;8.30;99.90;;;;;;6185925;23;20780;-86
2021/09/22 00:56:26;;;;;;;166.93;156.50;;;8.30;99.90;;;;;;6185777;23;20397;-86
2021/09/22 00:58:54;;;;;;;164.90;155.47;;;8.20;99.90;;;;;;6194166;23;20437;-85
2021/09/22 01:01:23;;;;;;;179.50;169.43;;;8.10;99.90;;;;;;6195137;23;20417;-86
2021/09/22 01:03:50;;;;;;;194.97;185.00;;;8.20;99.90;;;;;;6195645;23;20452;-86
2021/09/22 01:06:21;;;;;;;190.50;180.57;;;8.20;99.90;;;;;;6195311;23;20417;-87
2021/09/22 01:08:47;;;;;;;210.40;199.60;;;8.10;99.90;;;;;;6185599;23;20736;-87
2021/09/22 01:11:21;;;;;;;225.57;214.37;;;8.10;99.90;;;;;;6185115;23;21033;-87
2021/09/22 01:13:52;;;;;;;214.37;203.50;;;8.20;99.90;;;;;;6194143;23;20467;-87
2021/09/22 01:16:25;;;;;;;195.00;184.90;;;8.20;99.90;;;;;;6195137;23;20416;-87
2021/09/22 01:19:00;;;;;;;186.87;176.67;;;8.20;99.90;;;;;;6195515;23;20422;-87
2021/09/22 01:21:33;;;;;;;186.87;177.23;;;8.20;99.90;;;;;;6185230;23;20401;-87
2021/09/22 01:24:00;;;;;;;173.90;164.30;;;8.10;99.90;;;;;;6185355;23;20492;-87
2021/09/22 01:26:40;;;;;;;181.57;172.20;;;7.90;99.90;;;;;;6195500;23;20511;-87
2021/09/22 01:29:10;;;;;;;193.13;183.00;;;8.10;99.90;;;;;;6195294;23;20471;-85
2021/09/22 01:31:43;;;;;;;187.30;177.30;;;8.00;99.90;;;;;;6195160;23;20476;-87
2021/09/22 01:34:18;;;;;;;183.60;173.57;;;8.00;99.90;;;;;;6195075;23;20488;-87
2021/09/22 01:36:53;;;;;;;189.77;179.63;;;7.90;99.90;;;;;;6195533;23;20440;-86
2021/09/22 01:39:22;;;;;;;180.97;171.20;;;8.00;99.90;;;;;;6195429;23;20423;-87
2021/09/22 01:41:54;;;;;;;187.50;176.90;;;7.70;99.90;;;;;;6184293;23;20479;-87
2021/09/22 01:44:28;;;;;;;194.03;183.47;;;7.60;99.90;;;;;;6184969;23;20487;-86
2021/09/22 01:46:58;;;;;;;191.67;181.97;;;7.70;99.90;;;;;;6195217;23;20459;-87
2021/09/22 01:49:27;;;;;;;194.27;183.57;;;7.60;99.90;;;;;;6185600;23;20409;-86
2021/09/22 01:52:03;;;;;;;211.20;200.00;;;7.60;99.90;;;;;;6194896;23;20413;-87
2021/09/22 01:54:38;;;;;;;217.53;206.17;;;7.50;99.90;;;;;;6195356;23;20447;-86
2021/09/22 01:57:08;;;;;;;232.23;220.00;;;7.50;99.90;;;;;;6194009;23;20515;-86
2021/09/22 01:59:35;;;;;;;218.63;207.27;;;7.70;99.90;;;;;;6185457;23;20492;-83
2021/09/22 02:02:07;;;;;;;216.97;204.77;;;7.60;99.90;;;;;;6195402;23;20405;-86
2021/09/22 02:04:36;;;;;;;227.10;215.17;;;7.50;99.90;;;;;;6194803;23;20955;-86
2021/09/22 02:07:04;;;;;;;240.10;227.97;;;7.50;99.90;;;;;;6194923;23;20483;-87
2021/09/22 02:09:34;;;;;;;232.00;220.07;;;7.50;99.90;;;;;;6185472;23;20734;-86
2021/09/22 02:12:01;;;;;;;234.57;222.27;;;7.40;99.90;;;;;;6194100;23;20444;-86
2021/09/22 02:14:28;;;;;;;238.37;225.73;;;7.40;99.90;;;;;;6196131;23;20409;-86
2021/09/22 02:16:55;;;;;;;248.90;235.50;;;7.40;99.90;;;;;;6197309;23;20798;-86
2021/09/22 02:19:23;;;;;;;246.17;233.77;;;7.50;99.90;;;;;;6186853;23;20412;-87
2021/09/22 02:22:06;;;;;;;247.87;234.97;;;7.50;99.90;;;;;;6196799;23;20463;-86
2021/09/22 02:24:47;;;;;;;253.77;240.37;;;7.50;99.90;;;;;;6187045;23;20928;-86
2021/09/22 02:27:18;;;;;;;257.43;243.70;;;7.40;99.90;;;;;;6185711;23;20406;-86
2021/09/22 02:29:49;;;;;;;248.50;235.30;;;7.50;99.90;;;;;;6197264;23;20405;-85
2021/09/22 02:32:23;;;;;;;250.33;237.33;;;7.30;99.90;;;;;;6196965;23;20416;-86
2021/09/22 02:34:50;;;;;;;246.80;233.47;;;7.40;99.90;;;;;;6196448;23;20440;-87
2021/09/22 02:37:20;;;;;;;252.60;239.57;;;7.40;99.90;;;;;;6186754;23;20931;-87
2021/09/22 02:39:55;;;;;;;247.73;234.57;;;7.40;99.90;;;;;;6186945;23;20400;-85
2021/09/22 02:42:25;;;;;;;246.87;233.27;;;7.40;99.90;;;;;;6185916;23;20396;-86
2021/09/22 02:44:52;;;;;;;247.37;233.97;;;7.30;99.90;;;;;;6186593;23;20433;-86
2021/09/22 02:47:23;;;;;;;252.80;239.90;;;7.30;99.90;;;;;;6186842;23;20413;-86
2021/09/22 02:49:50;;;;;;;238.20;225.67;;;7.30;99.90;;;;;;6196665;23;20405;-87
2021/09/22 02:52:21;;;;;;;251.87;239.07;;;7.30;99.90;;;;;;6196626;23;20412;-86
2021/09/22 02:54:50;;;;;;;249.63;236.50;;;7.20;99.90;;;;;;6196606;23;20405;-85
2021/09/22 02:57:18;;;;;;;247.53;234.73;;;7.20;99.90;;;;;;6185528;23;20829;-87
2021/09/22 02:59:48;;;;;;;265.03;249.57;;;7.30;99.90;;;;;;6196756;23;20402;-88
2021/09/22 03:02:15;;;;;;;251.57;237.80;;;7.20;99.90;;;;;;6186856;23;20497;-87
2021/09/22 03:04:47;;;;;;;257.47;242.77;;;7.20;99.90;;;;;;6196655;23;20465;-86
2021/09/22 03:07:14;;;;;;;266.90;253.17;;;7.10;99.90;;;;;;6196789;23;20417;-87
2021/09/22 03:09:45;;;;;;;264.37;250.57;;;7.20;99.90;;;;;;6186789;23;20408;-85
2021/09/22 03:12:13;;;;;;;276.10;262.27;;;7.20;99.90;;;;;;6195109;23;20448;-88
2021/09/22 03:14:43;;;;;;;266.70;252.60;;;7.30;99.90;;;;;;6186819;23;20393;-87
2021/09/22 03:17:10;;;;;;;261.50;248.03;;;7.20;99.90;;;;;;6196737;23;20429;-88
2021/09/22 03:19:39;;;;;;;266.57;252.30;;;7.20;99.90;;;;;;6196512;23;20409;-87
2021/09/22 03:22:07;;;;;;;263.60;249.17;;;7.00;99.90;;;;;;6196777;23;20476;-86
2021/09/22 03:24:36;;;;;;;272.73;257.97;;;7.10;99.90;;;;;;6196190;23;20799;-86
2021/09/22 03:27:04;;;;;;;277.20;262.63;;;7.10;99.90;;;;;;6184912;23;20405;-87
2021/09/22 03:29:36;;;;;;;272.37;258.37;;;7.00;99.90;;;;;;6196256;23;20405;-85
2021/09/22 03:32:04;;;;;;;283.67;268.40;;;7.10;99.90;;;;;;6196146;23;20515;-86
2021/09/22 03:34:35;;;;;;;273.73;259.10;;;7.00;99.90;;;;;;6186184;23;20456;-87
2021/09/22 03:37:08;;;;;;;280.70;265.57;;;7.00;99.90;;;;;;6196148;23;20433;-86
2021/09/22 03:39:36;;;;;;;272.80;258.20;;;7.10;99.90;;;;;;6196270;23;20800;-87
2021/09/22 03:42:11;;;;;;;275.83;260.83;;;6.90;99.90;;;;;;6195063;23;20467;-85
2021/09/22 03:44:40;;;;;;;279.77;264.37;;;6.80;99.90;;;;;;6185889;23;20436;-88
2021/09/22 03:47:13;;;;;;;276.80;261.90;;;6.70;99.90;;;;;;6185808;23;20437;-85
2021/09/22 03:49:40;;;;;;;284.03;268.37;;;6.90;99.90;;;;;;6196131;23;20432;-87
2021/09/22 03:52:08;;;;;;;290.17;274.13;;;6.80;99.90;;;;;;6185683;23;20409;-87
2021/09/22 03:54:34;;;;;;;297.57;281.30;;;6.90;99.90;;;;;;6186368;23;20425;-88
2021/09/22 03:57:06;;;;;;;290.20;274.20;;;6.90;99.90;;;;;;6184575;23;20429;-88
2021/09/22 03:59:33;;;;;;;295.40;279.43;;;6.90;99.90;;;;;;6195717;23;20936;-87
2021/09/22 04:02:02;;;;;;;300.07;284.00;;;6.80;99.90;;;;;;6185849;23;20401;-88
2021/09/22 04:04:31;;;;;;;298.30;282.37;;;6.80;99.90;;;;;;6195936;23;20425;-87
2021/09/22 04:06:59;;;;;;;287.53;272.10;;;6.80;99.90;;;;;;6196171;23;20413;-87
2021/09/22 04:09:30;;;;;;;296.93;280.53;;;6.80;99.90;;;;;;6196220;23;20413;-87
2021/09/22 04:12:00;;;;;;;295.17;278.03;;;7.00;99.90;;;;;;6184409;23;20409;-88
2021/09/22 04:14:35;;;;;;;306.43;286.60;;;6.90;99.90;;;;;;6198723;23;20789;-92
2021/09/22 04:19:51;;;;;;;310.57;293.37;;;7.00;99.90;;;;;;6184234;23;20746;-87
2021/09/22 04:22:21;;;;;;;303.87;287.20;;;7.00;99.90;;;;;;6185475;23;20884;-86
2021/09/22 04:24:50;;;;;;;292.60;276.37;;;6.90;99.90;;;;;;6185921;23;20508;-88
2021/09/22 04:27:27;;;;;;;296.80;279.37;;;6.90;99.90;;;;;;6194683;23;20409;-87
2021/09/22 04:29:56;;;;;;;297.10;281.40;;;6.90;99.90;;;;;;6186047;23;20416;-88
2021/09/22 04:32:22;;;;;;;289.57;273.67;;;6.80;99.90;;;;;;6195696;23;20915;-87
2021/09/22 04:34:49;;;;;;;300.37;283.03;;;6.70;99.90;;;;;;6185444;23;20444;-87
2021/09/22 04:37:16;;;;;;;307.13;290.40;;;6.70;99.90;;;;;;6195335;23;20401;-83
2021/09/22 04:39:43;;;;;;;313.33;296.40;;;6.70;99.90;;;;;;6185975;23;20437;-88
2021/09/22 04:42:34;;;;;;;302.30;285.20;;;6.90;99.90;;;;;;6184282;23;20759;-79
2021/09/22 04:45:03;;;;;;;316.27;297.77;;;6.90;99.90;;;;;;6180741;23;20437;-86
2021/09/22 04:47:30;;;;;;;314.20;296.30;;;6.80;99.90;;;;;;6195792;23;20800;-87
2021/09/22 04:49:58;;;;;;;311.33;294.33;;;6.90;99.90;;;;;;6195647;23;20612;-86
2021/09/22 04:52:24;;;;;;;311.43;294.13;;;7.00;99.90;;;;;;6185679;23;20405;-85
2021/09/22 04:54:54;;;;;;;310.60;292.60;;;6.90;99.90;;;;;;6185820;23;20802;-86
2021/09/22 04:57:21;;;;;;;305.50;288.17;;;6.90;99.90;;;;;;6194093;23;20516;-86
2021/09/22 04:59:48;;;;;;;309.63;293.37;;;6.90;99.90;;;;;;6185795;23;20716;-85
2021/09/22 05:02:16;;;;;;;312.53;296.10;;;6.80;99.90;;;;;;6185634;23;20401;-89
2021/09/22 05:04:43;;;;;;;299.07;282.97;;;6.90;99.90;;;;;;6195706;23;20749;-88
2021/09/22 05:07:10;;;;;;;301.87;285.37;;;6.80;99.90;;;;;;6195608;23;20409;-86
2021/09/22 05:09:37;;;;;;;290.17;275.00;;;6.80;99.90;;;;;;6195766;23;20821;-85
2021/09/22 05:12:04;;;;;;;300.63;284.50;;;6.80;99.90;;;;;;6194390;23;20445;-86
2021/09/22 05:14:31;;;;;;;290.23;274.63;;;6.80;99.90;;;;;;6195522;23;20413;-87
2021/09/22 05:16:58;;;;;;;291.47;275.60;;;6.80;99.90;;;;;;6195231;23;20443;-86
2021/09/22 05:19:27;;;;;;;284.17;266.87;;;6.70;99.90;;;;;;6185284;23;20429;-86
2021/09/22 05:21:55;;;;;;;292.60;275.90;;;6.70;99.90;;;;;;6185606;23;20405;-86
2021/09/22 05:24:21;;;;;;;291.07;274.80;;;6.60;99.90;;;;;;6195136;23;20412;-86
2021/09/22 05:26:48;;;;;;;283.23;267.03;;;6.70;99.90;;;;;;6184202;23;20480;-85
2021/09/22 05:29:15;;;;;;;269.37;255.17;;;6.80;99.90;;;;;;6185561;23;20401;-85
2021/09/22 05:31:44;;;;;;;274.80;260.47;;;6.70;99.90;;;;;;6195531;23;20409;-87
2021/09/22 05:34:11;;;;;;;261.73;248.17;;;6.80;99.90;;;;;;6184996;23;20455;-86
2021/09/22 05:36:39;;;;;;;251.83;239.27;;;6.70;99.90;;;;;;6185132;23;20949;-86
2021/09/22 05:39:07;;;;;;;248.60;236.37;;;6.70;99.90;;;;;;6185541;23;20468;-87
2021/09/22 05:41:34;;;;;;;258.53;244.77;;;6.80;99.90;;;;;;6195563;23;20416;-85
2021/09/22 05:44:01;;;;;;;245.53;232.77;;;6.90;99.90;;;;;;6183738;23;20493;-87
2021/09/22 05:46:31;;;;;;;240.70;228.07;;;7.00;99.90;;;;;;6185439;23;20487;-84
2021/09/22 05:48:58;;;;;;;244.90;232.17;;;7.00;99.90;;;;;;6196009;23;20447;-87
2021/09/22 05:51:27;;;;;;;251.50;238.57;;;7.10;99.90;;;;;;6187520;23;20409;-85
2021/09/22 05:53:55;;;;;;;246.20;234.00;;;7.10;99.90;;;;;;6197321;23;20907;-86
2021/09/22 05:56:23;;;;;;;239.40;227.07;;;7.10;99.90;;;;;;6186287;23;20515;-83
2021/09/22 05:58:49;;;;;;;237.20;224.67;;;7.20;99.90;;;;;;6185270;23;20401;-85
2021/09/22 06:01:18;;;;;;;232.97;220.67;;;7.30;99.90;;;;;;6197091;23;20463;-86
2021/09/22 06:03:45;;;;;;;245.27;232.90;;;7.40;99.90;;;;;;6187292;23;20397;-84
2021/09/22 06:06:12;;;;;;;238.07;225.97;;;7.50;99.90;;;;;;6197159;23;20471;-84
2021/09/22 06:08:39;;;;;;;242.80;229.00;;;7.70;99.90;;;;;;6196604;23;20499;-86
2021/09/22 06:11:09;;;;;;;242.60;230.23;;;7.60;99.90;;;;;;6197175;23;20423;-85
2021/09/22 06:13:41;;;;;;;236.87;224.57;;;7.80;99.90;;;;;;6195245;23;20416;-86
2021/09/22 06:16:08;;;;;;;228.07;216.63;;;7.80;99.90;;;;;;6196500;23;20412;-86
2021/09/22 06:18:37;;;;;;;230.60;218.07;;;7.90;99.90;;;;;;6186468;23;20973;-85
2021/09/22 06:21:05;;;;;;;221.13;209.37;;;8.00;99.90;;;;;;6187141;23;20397;-85
2021/09/22 06:23:32;;;;;;;226.97;214.17;;;8.20;99.90;;;;;;6186736;23;20401;-86
2021/09/22 06:25:59;;;;;;;224.47;211.20;;;8.30;99.90;;;;;;6196974;23;20433;-85
2021/09/22 06:28:27;;;;;;;218.63;207.33;;;8.50;99.90;;;;;;6185640;23;20459;-86
2021/09/22 06:30:54;;;;;;;224.03;211.83;;;8.50;99.90;;;;;;6187027;23;20452;-85
2021/09/22 06:33:21;;;;;;;223.17;211.70;;;8.60;99.90;;;;;;6186762;23;20441;-85
2021/09/22 06:35:48;;;;;;;215.80;204.30;;;8.80;99.90;;;;;;6196485;23;20496;-86
2021/09/22 06:38:15;;;;;;;223.10;210.83;;;8.80;99.90;;;;;;6196824;23;20413;-86
2021/09/22 06:40:46;;;;;;;210.70;198.63;;;8.90;99.90;;;;;;6186966;23;20405;-84
2021/09/22 06:43:13;;;;;;;212.80;200.73;;;8.90;99.90;;;;;;6185345;23;20405;-83
2021/09/22 06:45:41;;;;;;;205.97;194.27;;;9.00;99.90;;;;;;6186687;23;20439;-86
2021/09/22 06:48:08;;;;;;;199.77;188.27;;;9.10;99.90;;;;;;6196953;23;20420;-80
2021/09/22 06:50:38;;;;;;;190.37;179.00;;;9.20;99.90;;;;;;6187092;23;20401;-83
2021/09/22 06:53:05;;;;;;;187.37;175.57;;;9.30;99.90;;;;;;6186751;23;20401;-85
2021/09/22 06:55:32;;;;;;;185.40;173.50;;;9.40;99.90;;;;;;6196208;23;20441;-85
2021/09/22 06:57:59;;;;;;;183.30;172.77;;;9.50;99.90;;;;;;6185551;23;20453;-89
2021/09/22 07:00:29;;;;;;;181.03;170.70;;;9.60;99.90;;;;;;6193325;23;20475;-87
2021/09/22 07:06:17;;;;;;;158.27;149.57;;;9.80;99.90;;;;;;6081191;23;20437;-88
2021/09/22 07:12:49;;;;;;;;;;;;;;;;;;;;;
2021/09/22 07:15:29;;;;;;;133.53;125.57;;;10.00;99.90;;;;;;6150729;23;20492;-87
2021/09/22 07:18:07;;;;;;;120.73;114.63;;;10.20;99.90;;;;;;6194734;23;20404;-89
2021/09/22 07:20:49;;;;;;;123.20;117.13;;;10.30;99.90;;;;;;6194944;23;20404;-87
2021/09/22 07:23:21;;;;;;;120.57;114.37;;;10.40;99.90;;;;;;6181709;23;20491;-88
2021/09/22 07:26:17;;;;;;;110.07;105.20;;;10.50;99.90;;;;;;6194591;23;20975;-87
2021/09/22 07:28:44;;;;;;;107.00;101.50;;;10.60;99.90;;;;;;6178361;23;20751;-89
2021/09/22 07:31:42;;;;;;;104.57;99.30;;;10.70;99.90;;;;;;6185000;23;20397;-88
2021/09/22 07:34:09;;;;;;;97.27;93.07;;;10.80;99.90;;;;;;6194107;23;20437;-88
2021/09/22 07:39:31;;;;;;;74.70;71.60;;;11.20;99.90;;;;;;6178434;23;20483;-88
2021/09/22 07:42:01;;;;;;;77.77;73.70;;;11.30;99.90;;;;;;6193437;23;20409;-89
2021/09/22 07:44:30;;;;;;;70.93;67.77;;;11.30;99.90;;;;;;6194671;23;20793;-87
2021/09/22 07:47:06;;;;;;;67.40;64.70;;;11.60;99.90;;;;;;6184421;23;20437;-87
2021/09/22 07:49:39;;;;;;;56.47;52.10;;;11.70;99.90;;;;;;6194664;23;20416;-88
2021/09/22 07:52:10;;;;;;;51.60;49.50;;;11.90;99.90;;;;;;6194747;23;20424;-89
2021/09/22 08:23:51;;;;;;;44.73;4.87;;;14.40;90.50;;;;;;5783975;24;20900;-88
2021/09/22 08:26:20;;;;;;;4.77;1.90;;;14.80;83.30;;;;;;5800823;24;21000;-89
2021/09/22 08:28:53;;;;;;;6.60;4.10;;;14.90;78.30;;;;;;5913690;24;20426;-91
2021/09/22 08:31:39;;;;;;;3.47;2.37;;;15.00;75.70;;;;;;5936220;24;20833;-90
2021/09/22 08:34:26;;;;;;;3.57;1.90;;;15.00;75.80;;;;;;5945879;23;20809;-90
2021/09/22 08:37:13;;;;;;;2.67;1.20;;;15.30;71.10;;;;;;6165848;23;20411;-90
2021/09/22 08:39:46;;;;;;;3.43;1.60;;;15.50;72.50;;;;;;6164294;23;20420;-89
2021/09/22 08:42:28;;;;;;;3.97;3.00;;;15.60;64.70;;;;;;6164561;23;20531;-90
2021/09/22 08:45:00;;;;;;;4.93;2.83;;;16.00;65.00;;;;;;6166028;23;20953;-91
2021/09/22 08:47:33;;;;;;;12.60;3.90;;;16.20;57.20;;;;;;6156177;23;20440;-90
2021/09/22 08:50:02;;;;;;;7.93;2.20;;;16.60;55.20;;;;;;6166608;23;20456;-88
2021/09/22 08:52:37;;;;;;;5.67;3.40;;;16.70;52.60;;;;;;6155644;23;20454;-81
2021/09/22 08:55:05;;;;;;;16.50;3.40;;;17.20;49.40;;;;;;6157493;23;20403;-89
2021/09/22 08:57:33;;;;;;;3.63;2.00;;;17.30;47.50;;;;;;6167472;23;20420;-87
2021/09/22 09:00:02;;;;;;;4.00;2.40;;;17.30;45.60;;;;;;6168745;23;20492;-91
2021/09/22 09:02:38;;;;;;;8.90;3.80;;;17.40;47.20;;;;;;6167339;23;20424;-91
2021/09/22 09:05:07;;;;;;;3.37;1.70;;;17.10;46.30;;;;;;6170617;23;20473;-88
2021/09/22 09:07:46;;;;;;;3.50;1.83;;;17.10;46.50;;;;;;6162921;23;20437;-90
2021/09/22 09:10:13;;;;;;;5.03;1.43;;;17.00;46.50;;;;;;6156838;23;20735;-89
2021/09/22 09:12:39;;;;;;;8.10;3.63;;;17.10;45.70;;;;;;6155132;23;20411;-92
2021/09/22 09:15:10;;;;;;;4.83;2.53;;;17.30;46.00;;;;;;6156531;23;20847;-88
2021/09/22 09:17:41;;;;;;;2.90;1.20;;;17.30;45.60;;;;;;6165676;23;20414;-92
2021/09/22 09:20:19;;;;;;;14.80;3.03;;;17.40;44.10;;;;;;6156948;23;20466;-93
2021/09/22 09:23:06;;;;;;;11.93;4.63;;;18.00;41.80;;;;;;6155378;23;20416;-93
2021/09/22 09:25:56;;;;;;;5.20;1.70;;;18.20;40.40;;;;;;6169203;23;20414;-92
2021/09/22 09:28:31;;;;;;;4.60;2.67;;;18.60;38.60;;;;;;6168761;23;20399;-94
2021/09/22 09:31:05;;;;;;;8.93;4.07;;;19.20;34.60;;;;;;6174003;23;20413;-92
2021/09/22 09:33:41;;;;;;;10.43;3.10;;;19.90;31.80;;;;;;6173675;23;20550;-91
2021/09/22 09:36:29;;;;;;;5.40;3.37;;;19.60;29.90;;;;;;6196444;23;20772;-92
2021/09/22 09:39:11;;;;;;;7.60;2.70;;;19.80;30.00;;;;;;6185884;23;20397;-90
2021/09/22 09:41:42;;;;;;;3.43;1.40;;;19.70;27.90;;;;;;6195180;23;20517;-87
2021/09/22 09:44:12;;;;;;;8.33;3.13;;;20.00;27.00;;;;;;6184073;23;20484;-92
2021/09/22 09:46:39;;;;;;;5.70;3.13;;;20.00;26.50;;;;;;6185330;23;20735;-85
2021/09/22 09:49:15;;;;;;;6.20;2.17;;;20.40;26.00;;;;;;6195317;23;20418;-89
2021/09/22 09:51:57;;;;;;;8.53;3.10;;;20.70;23.50;;;;;;6195804;23;20424;-86
2021/09/22 09:54:28;;;;;;;8.50;2.20;;;21.00;23.20;;;;;;6186175;23;20403;-89
2021/09/22 09:56:57;;;;;;;11.53;2.60;;;20.90;22.00;;;;;;6185991;23;20430;-88
2021/09/22 09:59:25;;;;;;;5.03;1.97;;;20.90;23.30;;;;;;6199114;23;20434;-91
2021/09/22 10:01:54;;;;;;;3.97;1.40;;;20.90;21.90;;;;;;6188031;23;20907;-88
2021/09/22 10:04:23;;;;;;;3.97;1.47;;;20.70;20.20;;;;;;6186241;23;20405;-87
2021/09/22 10:06:51;;;;;;;3.20;1.50;;;21.40;20.70;;;;;;6198459;23;20436;-90
2021/09/22 10:09:18;;;;;;;10.50;3.20;;;21.50;17.70;;;;;;6187452;23;20408;-89
2021/09/22 10:11:51;;;;;;;6.20;2.23;;;21.50;18.10;;;;;;6188957;23;20404;-89
2021/09/22 10:14:19;;;;;;;6.13;2.70;;;21.80;17.50;;;;;;6197808;23;20892;-89
2021/09/22 10:16:50;;;;;;;6.90;1.80;;;22.00;15.30;;;;;;6197319;23;20462;-89
2021/09/22 10:19:18;;;;;;;4.73;1.43;;;22.40;13.00;;;;;;6188429;23;20484;-89
2021/09/22 10:21:46;;;;;;;3.93;2.10;;;22.80;12.70;;;;;;6192546;23;20397;-90
2021/09/22 10:24:13;;;;;;;5.97;1.93;;;22.70;13.50;;;;;;6197717;23;20397;-83
2021/09/22 10:29:39;;;;;;;6.67;3.03;;;23.90;11.40;;;;;;6184143;23;20413;-87
2021/09/22 10:32:08;;;;;;;4.53;1.63;;;23.70;8.10;;;;;;6193715;23;20416;-86
2021/09/22 10:34:43;;;;;;;3.77;1.47;;;24.20;7.60;;;;;;6183788;23;20527;-86
2021/09/22 10:37:33;;;;;;;4.13;1.40;;;24.50;5.30;;;;;;6188622;23;20405;-91
2021/09/22 10:40:48;;;;;;;5.17;2.87;;;25.00;5.00;;;;;;6198483;23;20417;-86
2021/09/22 10:46:31;;;;;;;6.90;1.33;;;25.70;1.10;;;;;;6169495;23;20523;-94
2021/09/22 11:09:08;;;;;;;7.67;1.77;;;25.60;1.00;;;;;;6195966;23;20408;-86
2021/09/22 11:19:37;;;;;;;;;;;;;;;;;;;;;
2021/09/22 11:29:19;;;;;;;7.50;1.90;;;25.90;1.00;;;;;;5930210;23;20507;-82
2021/09/22 11:37:48;;;;;;;4.10;1.53;;;24.80;1.00;;;;;;5849650;24;20488;-82
2021/09/22 11:40:23;;;;;;;4.70;1.60;;;25.70;1.00;;;;;;6036913;23;20428;-83
2021/09/22 11:43:12;;;;;;;4.60;1.20;;;26.10;1.00;;;;;;6068665;23;20414;-83
2021/09/22 11:45:43;;;;;;;6.63;1.67;;;26.70;1.00;;;;;;6133216;23;20841;-87
2021/09/22 11:48:13;;;;;;;10.43;1.97;;;27.10;1.00;;;;;;6124207;23;20402;-88
2021/09/22 11:50:42;;;;;;;8.53;2.20;;;26.70;1.00;;;;;;6195537;23;20408;-86
2021/09/22 11:53:11;;;;;;;6.43;1.70;;;27.10;1.00;;;;;;6226063;23;20432;-88
2021/09/22 11:55:38;;;;;;;4.70;2.00;;;26.70;1.00;;;;;;6215960;23;20887;-88
2021/09/22 11:58:08;;;;;;;5.50;2.10;;;26.40;1.00;;;;;;6224379;23;20439;-88
2021/09/22 12:00:36;;;;;;;4.17;2.27;;;26.50;1.00;;;;;;6226516;23;20408;-88
2021/09/22 12:03:08;;;;;;;3.83;1.30;;;26.70;1.00;;;;;;6225809;23;20440;-88
2021/09/22 12:05:38;;;;;;;4.47;1.43;;;26.20;1.00;;;;;;6216309;23;20436;-89
2021/09/22 12:08:06;;;;;;;4.47;1.60;;;26.10;1.00;;;;;;6226434;23;20715;-88
2021/09/22 12:10:35;;;;;;;6.93;1.17;;;26.20;1.00;;;;;;6215795;23;20400;-88
2021/09/22 12:23:04;;;;;;;6.03;1.07;;;26.80;1.00;;;;;;6094228;23;20398;-88
2021/09/22 12:36:04;;;;;;;4.80;1.40;;;27.60;1.00;;;;;;6008473;23;20406;-88
2021/09/22 12:39:08;;;;;;;3.40;1.30;;;28.30;1.00;;;;;;6225866;23;20435;-89
2021/09/22 12:42:08;;;;;;;11.83;2.60;;;28.50;1.00;;;;;;6198947;23;20436;-88
2021/09/22 12:52:29;;;;;;;;;;;;;;;;;;;;;
2021/09/22 12:56:08;;;;;;;9.80;2.73;;;27.00;1.00;;;;;;5988522;23;20421;-86
2021/09/22 13:02:35;;;;;;;18.03;3.40;;;27.40;1.00;;;;;;6168010;23;20403;-88
2021/09/22 13:08:11;;;;;;;5.13;2.10;;;26.50;1.00;;;;;;6212049;23;20416;-86
2021/09/22 13:10:55;;;;;;;6.53;3.33;;;26.30;1.00;;;;;;6147602;23;20408;-83
2021/09/22 13:18:04;;;;;;;;;;;;;;;;;;;;;
2021/09/22 13:49:37;;;;;;;9.23;2.03;;;27.40;1.00;;;;;;5930408;23;20607;-80
2021/09/22 13:52:06;;;;;;;5.63;1.57;;;26.90;1.00;;;;;;6092476;23;20167;-81
2021/09/22 13:54:33;;;;;;;7.77;2.47;;;26.60;1.00;;;;;;6123359;23;20407;-82
2021/09/22 13:57:01;;;;;;;4.70;1.63;;;26.60;1.00;;;;;;6131021;23;20462;-79
2021/09/22 13:59:28;;;;;;;5.87;2.40;;;26.40;1.00;;;;;;6134908;23;20403;-79
2021/09/22 14:01:55;;;;;;;7.03;1.97;;;26.50;1.00;;;;;;6215113;23;20413;-80
2021/09/22 14:04:22;;;;;;;3.53;1.60;;;27.40;1.00;;;;;;6214805;23;20455;-80
2021/09/22 14:06:50;;;;;;;8.17;2.00;;;27.10;1.00;;;;;;6215541;23;20423;-79
2021/09/22 14:09:17;;;;;;;8.40;2.17;;;26.80;1.00;;;;;;6215996;23;20401;-81
2021/09/22 14:12:10;;;;;;;5.50;2.00;;;27.10;1.00;;;;;;6217560;23;20400;-84
2021/09/22 14:14:59;;;;;;;;;;;;;;;;;;;;;
2021/09/22 14:17:49;;;;;;;11.30;2.50;;;27.00;1.00;;;;;;6218952;23;20456;-84
2021/09/22 14:20:16;;;;;;;6.37;2.47;;;26.60;1.00;;;;;;6210196;23;20386;-79
2021/09/22 14:22:44;;;;;;;10.50;2.57;;;26.80;1.00;;;;;;6217307;23;20396;-84
2021/09/22 14:25:11;;;;;;;26.23;4.40;;;26.90;1.00;;;;;;6227817;23;20495;-83
2021/09/22 14:27:58;;;;;;;3.83;1.33;;;27.20;1.00;;;;;;6226525;23;20734;-83
2021/09/22 14:30:38;;;;;;;3.90;1.50;;;27.90;1.00;;;;;;6226838;23;20400;-82
2021/09/22 14:33:08;;;;;;;8.20;2.87;;;26.60;1.00;;;;;;6216886;23;20396;-79
2021/09/22 14:35:35;;;;;;;6.53;2.87;;;26.60;1.00;;;;;;6216904;23;20403;-79
2021/09/22 14:38:05;;;;;;;11.77;3.13;;;27.00;1.00;;;;;;6216665;23;20475;-81
2021/09/22 14:40:32;;;;;;;6.23;2.53;;;26.90;1.00;;;;;;6217263;23;20404;-79
2021/09/22 14:43:00;;;;;;;3.80;1.60;;;27.10;1.00;;;;;;6215618;23;20400;-91
2021/09/22 14:45:28;;;;;;;4.90;2.17;;;27.70;1.00;;;;;;6227040;23;20435;-91
2021/09/22 14:47:55;;;;;;;4.67;2.30;;;27.90;1.00;;;;;;6217030;23;20405;-90
2021/09/22 14:50:23;;;;;;;4.27;1.87;;;28.20;1.00;;;;;;6227081;23;20443;-90
2021/09/22 14:52:51;;;;;;;8.40;3.57;;;28.10;1.00;;;;;;6226930;23;20404;-89
2021/09/22 14:55:19;;;;;;;5.40;2.07;;;27.40;1.00;;;;;;6216980;23;20431;-89
2021/09/22 14:57:47;;;;;;;4.60;1.53;;;26.70;1.00;;;;;;6225682;23;20460;-89
2021/09/22 15:00:21;;;;;;;5.10;1.30;;;26.30;1.00;;;;;;6217180;23;20382;-82
2021/09/22 15:02:52;;;;;;;9.40;2.70;;;26.20;1.00;;;;;;6217079;23;20404;-86
2021/09/22 15:05:20;;;;;;;8.57;2.23;;;26.50;1.00;;;;;;6216791;23;20470;-87
2021/09/22 15:07:50;;;;;;;7.03;2.53;;;26.80;1.00;;;;;;6226817;23;20408;-86
2021/09/22 15:10:29;;;;;;;4.23;1.33;;;26.30;1.00;;;;;;6217098;23;20442;-81
2021/09/22 15:13:31;;;;;;;;;;;;;;;;;;;;;
2021/09/22 15:19:28;;;;;;;5.23;2.50;;;26.60;1.00;;;;;;6142817;23;20408;-90
2021/09/22 15:22:02;;;;;;;5.00;2.20;;;26.70;1.00;;;;;;6226974;23;20415;-90
2021/09/22 15:24:31;;;;;;;4.33;1.50;;;26.10;1.00;;;;;;6226810;23;20732;-90
2021/09/22 15:27:04;;;;;;;9.73;2.43;;;26.10;1.00;;;;;;6225320;23;20773;-90
2021/09/22 15:30:01;;;;;;;8.70;2.03;;;26.40;1.00;;;;;;6226673;23;20423;-88
2021/09/22 15:35:21;;;;;;;6.37;1.87;;;26.10;1.00;;;;;;6212476;23;20499;-90
2021/09/22 15:38:04;;;;;;;7.20;1.90;;;26.00;1.00;;;;;;6226735;23;20436;-89
2021/09/22 15:40:57;;;;;;;4.93;1.90;;;25.20;1.00;;;;;;6227405;23;20963;-87
2021/09/22 15:46:06;;;;;;;4.93;1.70;;;24.20;1.00;;;;;;6216095;23;20412;-89
2021/09/22 15:48:39;;;;;;;5.60;2.77;;;24.30;1.00;;;;;;6216444;23;20435;-88